Time;durP1;ratioP1;P1;durP2;ratioP2;P2;SDS_P1;SDS_P2;PMS_P1;PMS_P2;Temp;Humidity;BMP_temperature;BMP_pressure;BME280_temperature;BME280_humidity;BME280_pressure;Samples;Min_cycle;Max_cycle;Signal;HPM_P1;HPM_P2
2022/05/22 00:01:37;;;;;;;7.28;5.40;;;;;;;10.34;86.77;98813.78;4187763;28;20107;-71
2022/05/22 00:03:38;;;;;;;8.43;6.18;;;;;;;10.38;85.81;98825.75;4186546;28;20377;-71
2022/05/22 00:05:38;;;;;;;8.52;5.18;;;;;;;10.45;85.09;98823.09;4186379;28;20052;-71
2022/05/22 00:07:38;;;;;;;9.35;5.57;;;;;;;10.34;87.10;98822.09;4188443;28;20437;-71
2022/05/22 00:09:39;;;;;;;8.45;5.68;;;;;;;10.19;88.11;98812.75;4189931;28;20059;-71
2022/05/22 00:11:39;;;;;;;7.43;5.28;;;;;;;10.08;88.06;98817.25;4186781;28;20055;-70
2022/05/22 00:13:40;;;;;;;6.13;5.28;;;;;;;10.00;88.57;98818.28;4186457;28;20021;-70
2022/05/22 00:16:36;;;;;;;6.10;4.93;;;;;;;9.93;88.56;98818.97;4187002;28;20086;-71
2022/05/22 00:18:02;;;;;;;8.23;5.43;;;;;;;9.80;89.28;98814.75;4186525;28;20032;-71
2022/05/22 00:20:04;;;;;;;6.85;4.70;;;;;;;9.70;91.71;98818.91;4185352;28;20109;-71
2022/05/22 00:22:05;;;;;;;8.45;5.22;;;;;;;9.62;91.59;98827.41;4186739;28;20035;-70
2022/05/22 00:24:06;;;;;;;6.05;4.70;;;;;;;9.55;91.76;98817.00;4186960;28;20444;-70
2022/05/22 00:26:06;;;;;;;8.30;4.57;;;;;;;9.56;91.28;98815.84;4188491;28;20037;-70
2022/05/22 00:28:07;;;;;;;7.57;5.40;;;;;;;9.53;92.44;98820.13;4190473;28;20040;-70
2022/05/22 00:30:09;;;;;;;6.85;5.57;;;;;;;9.53;92.01;98809.09;4187411;28;21192;-71
2022/05/22 00:32:10;;;;;;;8.77;5.57;;;;;;;9.55;91.98;98814.25;4188492;28;20047;-70
2022/05/22 00:34:11;;;;;;;8.38;5.97;;;;;;;9.54;92.33;98818.16;4189425;28;20024;-70
2022/05/22 00:36:11;;;;;;;11.10;6.13;;;;;;;9.51;92.32;98818.88;4185630;28;20111;-70
2022/05/22 00:38:11;;;;;;;7.22;5.47;;;;;;;9.51;92.24;98822.44;4187483;28;20147;-70
2022/05/22 00:40:12;;;;;;;8.45;5.90;;;;;;;9.52;91.66;98821.31;4185361;28;20502;-70
2022/05/22 00:42:18;;;;;;;9.23;5.40;;;;;;;9.53;90.30;98822.09;4186241;28;20412;-70
2022/05/22 00:44:19;;;;;;;6.88;5.13;;;;;;;9.64;88.69;98827.84;4187686;28;20035;-70
2022/05/22 00:46:21;;;;;;;7.72;5.32;;;;;;;9.67;88.14;98835.38;4187122;28;20285;-70
2022/05/22 00:48:22;;;;;;;5.90;5.25;;;;;;;9.70;87.97;98826.41;4185968;28;20033;-70
2022/05/22 00:50:22;;;;;;;8.93;5.43;;;;;;;9.75;87.81;98831.59;4185530;28;20604;-71
2022/05/22 00:52:29;;;;;;;7.85;5.25;;;;;;;9.70;87.54;98842.97;4185851;28;20450;-70
2022/05/22 00:54:52;;;;;;;7.30;4.82;;;;;;;9.67;88.29;98846.44;4187913;28;20456;-70
2022/05/22 00:56:59;;;;;;;8.98;5.25;;;;;;;9.63;88.07;98849.16;4185518;28;20459;-70
2022/05/22 00:59:00;;;;;;;9.18;5.40;;;;;;;9.57;88.75;98845.06;4185354;28;20044;-70
2022/05/22 01:01:02;;;;;;;7.32;5.38;;;;;;;9.47;89.90;98840.91;4187818;28;20154;-70
2022/05/22 01:03:28;;;;;;;6.80;5.07;;;;;;;9.42;90.54;98849.47;4186407;28;20028;-70
2022/05/22 01:05:29;;;;;;;7.63;5.03;;;;;;;9.35;89.53;98851.28;4184993;28;20059;-70
2022/05/22 01:07:29;;;;;;;7.40;5.47;;;;;;;9.32;90.09;98852.00;4186162;28;20439;-70
2022/05/22 01:09:29;;;;;;;9.02;5.60;;;;;;;9.26;91.02;98846.75;4186067;28;20021;-70
2022/05/22 01:11:34;;;;;;;7.25;4.72;;;;;;;9.20;91.10;98853.72;4189614;28;20037;-70
2022/05/22 01:13:42;;;;;;;7.80;5.40;;;;;;;9.17;91.80;98848.13;4187174;28;20036;-70
2022/05/22 01:15:43;;;;;;;8.40;4.90;;;;;;;9.14;91.38;98849.66;4187223;28;20024;-70
2022/05/22 01:17:48;;;;;;;6.15;4.68;;;;;;;9.12;91.81;98848.41;4185753;28;20036;-70
2022/05/22 01:19:56;;;;;;;8.02;6.00;;;;;;;9.09;92.17;98849.09;4187003;28;20343;-70
2022/05/22 01:22:03;;;;;;;9.35;4.85;;;;;;;9.06;93.07;98860.88;4185625;28;20029;-70
2022/05/22 01:24:04;;;;;;;10.30;5.43;;;;;;;9.01;93.19;98856.41;4186140;28;20243;-70
2022/05/22 01:26:04;;;;;;;7.10;5.05;;;;;;;8.99;93.24;98854.03;4189560;28;20039;-70
2022/05/22 01:28:06;;;;;;;9.07;5.70;;;;;;;8.98;93.06;98849.66;4189769;28;20387;-70
2022/05/22 01:30:18;;;;;;;12.18;5.90;;;;;;;8.97;93.43;98845.31;4189225;28;20020;-70
2022/05/22 01:32:18;;;;;;;8.30;5.72;;;;;;;8.97;92.45;98847.28;4190348;28;20897;-70
2022/05/22 01:34:18;;;;;;;8.25;5.15;;;;;;;8.95;92.32;98842.13;4188583;28;20044;-70
2022/05/22 01:36:19;;;;;;;6.35;4.97;;;;;;;8.93;92.00;98844.41;4189086;28;20063;-70
2022/05/22 01:38:20;;;;;;;6.68;4.70;;;;;;;8.91;92.10;98843.97;4188402;28;20025;-70
2022/05/22 01:40:21;;;;;;;7.63;4.70;;;;;;;8.90;92.32;98845.13;4191524;28;20056;-70
2022/05/22 01:42:21;;;;;;;8.15;4.80;;;;;;;8.86;93.44;98835.19;4189183;28;20302;-70
2022/05/22 01:44:22;;;;;;;6.70;5.28;;;;;;;8.84;93.67;98838.28;4189346;28;20490;-70
2022/05/22 01:46:22;;;;;;;8.80;5.15;;;;;;;8.82;93.32;98839.81;4190166;28;20353;-70
2022/05/22 01:48:24;;;;;;;8.18;4.78;;;;;;;8.78;93.24;98836.97;4189191;28;20105;-70
2022/05/22 01:50:24;;;;;;;8.82;5.35;;;;;;;8.85;91.03;98837.13;4191233;28;20028;-70
2022/05/22 01:52:25;;;;;;;8.68;5.57;;;;;;;8.85;91.70;98839.09;4191319;28;20107;-70
2022/05/22 01:54:25;;;;;;;7.20;4.97;;;;;;;8.85;91.70;98842.63;4188819;28;20038;-70
2022/05/22 01:56:25;;;;;;;9.70;5.63;;;;;;;8.84;91.16;98835.53;4188221;28;20028;-70
2022/05/22 01:58:26;;;;;;;7.88;5.00;;;;;;;8.83;91.76;98841.41;4188790;28;20422;-70
2022/05/22 02:00:26;;;;;;;7.60;4.90;;;;;;;8.80;91.55;98851.22;4189769;28;20016;-70
2022/05/22 02:02:27;;;;;;;7.00;4.60;;;;;;;8.78;92.31;98848.00;4188955;28;20230;-70
2022/05/22 02:04:27;;;;;;;9.52;4.72;;;;;;;8.78;91.63;98848.00;4188950;28;20380;-70
2022/05/22 02:06:27;;;;;;;7.53;5.57;;;;;;;8.78;91.05;98844.44;4190710;28;20044;-70
2022/05/22 02:08:28;;;;;;;6.57;4.78;;;;;;;8.81;90.02;98838.22;4187892;28;20025;-70
2022/05/22 02:10:29;;;;;;;10.80;5.75;;;;;;;8.84;90.61;98843.81;4188892;28;20050;-70
2022/05/22 02:12:30;;;;;;;7.40;5.20;;;;;;;8.81;90.59;98841.75;4187752;28;20111;-70
2022/05/22 02:14:30;;;;;;;10.18;4.70;;;;;;;8.76;90.92;98842.03;4188978;28;20503;-70
2022/05/22 02:16:31;;;;;;;10.27;5.03;;;;;;;8.73;91.96;98837.22;4189275;28;20071;-70
2022/05/22 02:18:31;;;;;;;6.60;5.05;;;;;;;8.69;91.75;98837.16;4187570;28;20024;-70
2022/05/22 02:20:31;;;;;;;8.85;5.40;;;;;;;8.64;92.38;98831.09;4188487;28;20400;-70
2022/05/22 02:22:32;;;;;;;8.02;4.80;;;;;;;8.63;91.90;98826.75;4188569;28;20027;-70
2022/05/22 02:24:32;;;;;;;6.20;4.10;;;;;;;8.69;90.62;98822.56;4189124;28;20362;-70
2022/05/22 02:26:32;;;;;;;8.98;5.35;;;;;;;8.82;89.29;98814.97;4189303;28;20024;-70
2022/05/22 02:28:33;;;;;;;6.30;4.75;;;;;;;8.87;89.64;98823.78;4189136;28;20051;-70
2022/05/22 02:30:38;;;;;;;9.15;5.10;;;;;;;8.93;89.66;98816.81;4191578;28;20199;-70
2022/05/22 02:32:38;;;;;;;7.75;4.80;;;;;;;9.01;88.49;98815.03;4187104;28;20456;-70
2022/05/22 02:34:39;;;;;;;11.80;5.03;;;;;;;8.97;88.64;98805.88;4188536;28;20124;-70
2022/05/22 02:36:39;;;;;;;8.55;4.93;;;;;;;8.85;89.88;98794.94;4186817;28;20036;-70
2022/05/22 02:38:41;;;;;;;12.93;5.22;;;;;;;8.65;91.53;98800.41;4187635;28;20726;-70
2022/05/22 02:40:41;;;;;;;5.63;4.80;;;;;;;8.55;90.48;98797.38;4188196;28;20032;-70
2022/05/22 02:42:44;;;;;;;7.43;5.10;;;;;;;8.46;91.55;98786.53;4188755;28;20276;-70
2022/05/22 02:44:44;;;;;;;7.53;5.32;;;;;;;8.38;92.69;98787.53;4190715;28;20036;-70
2022/05/22 02:46:45;;;;;;;7.03;5.20;;;;;;;8.28;93.29;98797.09;4188885;28;20306;-70
2022/05/22 02:48:46;;;;;;;9.20;5.53;;;;;;;8.16;94.63;98794.41;4187707;28;20120;-70
2022/05/22 02:50:46;;;;;;;7.75;4.80;;;;;;;8.08;94.09;98790.66;4188974;28;20302;-70
2022/05/22 02:52:47;;;;;;;6.88;4.78;;;;;;;7.99;95.04;98783.72;4188645;28;20677;-70
2022/05/22 02:54:47;;;;;;;9.13;5.25;;;;;;;7.94;94.47;98781.22;4187829;28;20376;-70
2022/05/22 02:56:48;;;;;;;8.55;5.38;;;;;;;7.87;95.12;98781.84;4186911;28;20023;-70
2022/05/22 02:58:48;;;;;;;7.15;5.32;;;;;;;7.80;96.03;98789.91;4177157;28;20032;-70
2022/05/22 03:00:48;;;;;;;6.13;5.30;;;;;;;7.76;96.45;98792.56;4188819;28;20089;-70
2022/05/22 03:02:49;;;;;;;8.68;5.55;;;;;;;7.76;95.38;98789.78;4187568;28;20020;-70
2022/05/22 03:04:50;;;;;;;10.13;5.28;;;;;;;7.76;95.13;98787.03;4188865;28;20484;-70
2022/05/22 03:06:50;;;;;;;7.88;5.07;;;;;;;7.74;95.45;98786.59;4188155;28;20038;-70
2022/05/22 03:08:50;;;;;;;7.63;4.78;;;;;;;7.75;95.06;98785.44;4188662;28;20379;-70
2022/05/22 03:10:51;;;;;;;8.15;5.65;;;;;;;7.73;96.97;98789.72;4190906;28;20476;-70
2022/05/22 03:12:51;;;;;;;6.97;5.18;;;;;;;7.75;95.23;98784.66;4191831;28;20222;-70
2022/05/22 03:14:54;;;;;;;7.55;5.35;;;;;;;7.79;94.72;98800.13;4188178;28;20120;-70
2022/05/22 03:16:55;;;;;;;9.65;5.30;;;;;;;7.78;95.60;98803.25;4189479;28;20029;-70
2022/05/22 03:18:55;;;;;;;7.25;4.88;;;;;;;7.77;95.96;98794.16;4186554;28;20067;-70
2022/05/22 03:20:56;;;;;;;8.82;5.05;;;;;;;7.75;95.92;98798.41;4187851;28;20029;-70
2022/05/22 03:22:58;;;;;;;8.05;5.35;;;;;;;7.68;97.23;98795.47;4187609;28;20032;-70
2022/05/22 03:24:58;;;;;;;6.47;4.85;;;;;;;7.60;98.65;98797.22;4186335;28;20020;-70
2022/05/22 03:27:02;;;;;;;9.23;5.50;;;;;;;7.48;99.93;98789.00;4187684;28;20039;-70
2022/05/22 03:29:02;;;;;;;8.70;6.05;;;;;;;7.47;100.00;98793.72;4186059;28;20040;-70
2022/05/22 03:31:03;;;;;;;6.97;4.85;;;;;;;7.47;100.00;98788.22;4187780;28;20464;-70
2022/05/22 03:33:03;;;;;;;8.45;5.20;;;;;;;7.54;97.99;98788.41;4187379;28;20260;-70
2022/05/22 03:35:03;;;;;;;6.95;5.05;;;;;;;7.57;96.84;98784.16;4187687;28;20571;-70
2022/05/22 03:37:04;;;;;;;9.02;5.57;;;;;;;7.51;97.59;98794.59;4188255;28;20051;-70
2022/05/22 03:39:06;;;;;;;7.20;5.20;;;;;;;7.47;98.52;98781.91;4186432;28;20035;-70
2022/05/22 03:41:06;;;;;;;8.88;5.35;;;;;;;7.46;97.64;98777.56;4187690;28;20274;-70
2022/05/22 03:43:06;;;;;;;8.85;5.13;;;;;;;7.41;97.52;98773.09;4187129;28;20544;-70
2022/05/22 03:45:07;;;;;;;7.72;5.63;;;;;;;7.40;97.15;98787.22;4190664;28;20032;-70
2022/05/22 03:47:08;;;;;;;8.50;5.30;;;;;;;7.38;97.44;98778.50;4189597;28;20028;-70
2022/05/22 03:49:08;;;;;;;6.78;5.43;;;;;;;7.37;97.07;98785.97;4187133;28;20532;-70
2022/05/22 03:51:08;;;;;;;6.95;5.13;;;;;;;7.33;97.81;98798.81;4186339;28;20021;-70
2022/05/22 03:53:09;;;;;;;10.50;5.50;;;;;;;7.26;98.46;98799.38;4186985;28;20082;-70
2022/05/22 03:55:13;;;;;;;5.55;4.82;;;;;;;7.27;98.79;98800.19;4188840;28;20111;-70
2022/05/22 03:57:13;;;;;;;6.22;5.00;;;;;;;7.25;100.00;98803.28;4189547;28;20031;-70
2022/05/22 03:59:14;;;;;;;7.45;5.18;;;;;;;7.23;100.00;98800.09;4185438;28;20024;-70
2022/05/22 04:01:14;;;;;;;7.28;5.13;;;;;;;7.24;100.00;98800.91;4187058;28;20017;-70
2022/05/22 04:03:15;;;;;;;8.27;5.55;;;;;;;7.25;100.00;98806.06;4187059;28;20102;-70
2022/05/22 04:05:15;;;;;;;9.55;5.70;;;;;;;7.24;100.00;98798.94;4188388;28;20028;-70
2022/05/22 04:07:16;;;;;;;7.82;5.80;;;;;;;7.26;100.00;98796.63;4187196;28;20107;-70
2022/05/22 04:09:16;;;;;;;11.60;5.88;;;;;;;7.28;100.00;98796.28;4186688;28;20064;-70
2022/05/22 04:11:19;;;;;;;7.53;5.60;;;;;;;7.31;100.00;98792.84;4186669;28;20046;-70
2022/05/22 04:13:19;;;;;;;7.72;5.53;;;;;;;7.34;100.00;98800.41;4186345;28;20082;-70
2022/05/22 04:15:21;;;;;;;7.25;5.50;;;;;;;7.33;100.00;98796.06;4186586;28;20476;-70
2022/05/22 04:17:22;;;;;;;9.23;5.82;;;;;;;7.41;100.00;98799.81;4186987;28;20111;-70
2022/05/22 04:19:22;;;;;;;8.52;5.97;;;;;;;7.43;100.00;98803.00;4187432;28;20063;-70
2022/05/22 04:21:22;;;;;;;8.57;5.80;;;;;;;7.48;100.00;98798.06;4186421;28;20021;-70
2022/05/22 04:25:59;;;;;;;7.55;5.22;;;;;;;7.58;100.00;98805.03;4187844;28;20035;-70
2022/05/22 04:27:59;;;;;;;9.93;5.82;;;;;;;7.65;100.00;98810.75;4186132;28;20024;-70
2022/05/22 04:30:00;;;;;;;8.52;5.75;;;;;;;7.70;100.00;98813.25;4185962;28;20023;-70
2022/05/22 04:32:00;;;;;;;7.60;5.55;;;;;;;7.70;100.00;98804.19;4186238;28;20332;-70
2022/05/22 04:34:01;;;;;;;8.45;6.10;;;;;;;7.75;100.00;98801.97;4186343;28;20458;-70
2022/05/22 04:36:01;;;;;;;7.10;5.60;;;;;;;7.83;100.00;98811.22;4187804;28;20376;-70
2022/05/22 04:38:02;;;;;;;11.70;5.78;;;;;;;7.85;100.00;98803.41;4187314;28;20353;-70
2022/05/22 04:40:03;;;;;;;7.85;5.57;;;;;;;7.93;100.00;98802.44;4185565;28;20070;-70
2022/05/22 04:42:04;;;;;;;8.32;5.72;;;;;;;7.98;100.00;98793.13;4187713;28;20078;-70
2022/05/22 04:44:05;;;;;;;9.27;5.97;;;;;;;8.01;100.00;98793.22;4187134;28;20036;-70
2022/05/22 04:46:07;;;;;;;7.30;5.05;;;;;;;8.08;100.00;98793.41;4186934;28;20035;-70
2022/05/22 04:48:08;;;;;;;8.80;5.47;;;;;;;8.16;99.67;98783.38;4186223;28;20067;-70
2022/05/22 04:50:11;;;;;;;9.32;5.40;;;;;;;8.27;98.21;98787.19;4185249;28;20037;-70
2022/05/22 04:52:11;;;;;;;8.43;5.25;;;;;;;8.42;95.83;98797.47;4186074;28;20395;-70
2022/05/22 04:54:12;;;;;;;10.02;5.93;;;;;;;8.57;94.52;98792.31;4186235;28;20031;-70
2022/05/22 04:56:12;;;;;;;7.45;5.25;;;;;;;8.74;92.84;98783.66;4186269;28;20067;-70
2022/05/22 04:58:14;;;;;;;7.15;5.35;;;;;;;8.86;91.87;98780.81;4185925;28;20468;-70
2022/05/22 05:00:14;;;;;;;8.25;5.57;;;;;;;9.00;92.14;98785.81;4187010;28;20368;-70
2022/05/22 05:02:15;;;;;;;9.30;6.43;;;;;;;9.08;92.52;98784.03;4188671;28;20032;-70
2022/05/22 05:04:15;;;;;;;9.57;5.95;;;;;;;9.15;92.10;98782.22;4187906;28;20324;-70
2022/05/22 05:06:16;;;;;;;9.98;5.90;;;;;;;9.26;91.05;98793.50;4187117;28;20428;-70
2022/05/22 05:08:16;;;;;;;8.95;5.78;;;;;;;9.37;90.21;98796.50;4188175;28;20474;-70
2022/05/22 05:10:16;;;;;;;11.02;5.93;;;;;;;9.47;88.97;98787.63;4185360;28;20098;-70
2022/05/22 05:12:17;;;;;;;7.60;5.43;;;;;;;9.57;87.82;98793.38;4187086;28;20464;-70
2022/05/22 05:14:18;;;;;;;11.18;6.65;;;;;;;9.69;87.75;98791.66;4185741;28;20028;-70
2022/05/22 05:16:18;;;;;;;7.88;5.57;;;;;;;9.78;88.86;98801.31;4186994;28;20029;-70
2022/05/22 05:18:18;;;;;;;12.13;6.97;;;;;;;9.84;91.54;98787.97;4185655;28;20526;-70
2022/05/22 05:20:25;;;;;;;8.93;6.07;;;;;;;9.91;91.37;98793.63;4185466;28;20024;-70
2022/05/22 05:22:30;;;;;;;8.40;6.28;;;;;;;9.99;92.64;98800.09;4188042;28;20752;-70
2022/05/22 05:24:30;;;;;;;10.48;6.57;;;;;;;10.05;92.28;98793.13;4188324;28;20147;-70
2022/05/22 05:26:31;;;;;;;11.20;6.20;;;;;;;10.14;90.44;98783.41;4183979;28;20071;-70
2022/05/22 05:28:32;;;;;;;7.85;5.22;;;;;;;10.25;87.84;98789.16;4186229;28;20522;-70
2022/05/22 05:30:33;;;;;;;10.23;6.03;;;;;;;10.38;86.89;98790.59;4185648;28;20033;-70
2022/05/22 05:32:33;;;;;;;11.23;6.32;;;;;;;10.52;89.63;98795.56;4185838;28;20453;-70
2022/05/22 05:34:34;;;;;;;9.88;6.63;;;;;;;10.61;91.31;98787.00;4185363;28;20025;-70
2022/05/22 05:36:34;;;;;;;7.85;5.90;;;;;;;10.72;91.63;98787.16;4187904;28;20368;-70
2022/05/22 05:38:35;;;;;;;10.20;6.38;;;;;;;10.79;89.67;98787.28;4185358;28;20039;-70
2022/05/22 05:40:35;;;;;;;10.60;6.90;;;;;;;10.83;91.87;98794.47;4186180;28;20024;-70
2022/05/22 05:42:36;;;;;;;9.73;6.50;;;;;;;10.82;91.52;98784.56;4188063;28;20029;-70
2022/05/22 05:44:37;;;;;;;12.35;6.93;;;;;;;10.88;92.11;98782.28;4190356;28;20024;-70
2022/05/22 05:46:38;;;;;;;13.77;7.30;;;;;;;10.95;90.99;98774.88;4186703;28;20436;-70
2022/05/22 05:48:38;;;;;;;12.93;7.07;;;;;;;11.05;91.12;98776.22;4184941;28;20031;-70
2022/05/22 05:50:41;;;;;;;9.75;6.22;;;;;;;11.09;88.79;98773.47;4183871;28;20040;-70
2022/05/22 05:52:41;;;;;;;10.77;6.13;;;;;;;11.17;87.75;98775.16;4186206;28;20029;-70
2022/05/22 05:54:41;;;;;;;10.18;6.13;;;;;;;11.33;87.92;98784.09;4184708;28;20089;-70
2022/05/22 05:56:42;;;;;;;11.05;5.70;;;;;;;11.43;86.85;98783.47;4185896;28;20028;-70
2022/05/22 05:58:42;;;;;;;10.65;7.13;;;;;;;11.52;88.18;98774.84;4186082;28;20088;-70
2022/05/22 06:00:44;;;;;;;12.55;7.25;;;;;;;11.65;90.20;98780.94;4185554;28;20024;-70
2022/05/22 06:02:44;;;;;;;9.15;6.28;;;;;;;11.70;87.87;98769.53;4185527;28;20457;-70
2022/05/22 06:04:44;;;;;;;8.55;6.47;;;;;;;11.72;83.86;98765.19;4185768;28;20181;-70
2022/05/22 06:06:44;;;;;;;9.30;6.88;;;;;;;11.81;86.00;98762.16;4185332;28;20068;-70
2022/05/22 06:08:45;;;;;;;9.98;7.20;;;;;;;11.83;89.47;98768.09;4185250;28;20032;-70
2022/05/22 06:10:46;;;;;;;12.60;7.00;;;;;;;11.90;91.25;98764.63;4186114;28;20032;-70
2022/05/22 06:12:46;;;;;;;12.52;7.13;;;;;;;11.96;89.47;98766.69;4188322;28;20089;-70
2022/05/22 06:14:46;;;;;;;15.07;7.15;;;;;;;12.03;90.28;98763.97;4188609;28;20225;-70
2022/05/22 06:16:47;;;;;;;10.80;7.00;;;;;;;12.12;89.41;98760.09;4187719;28;20029;-70
2022/05/22 06:18:47;;;;;;;9.95;6.78;;;;;;;12.21;84.79;98755.81;4190073;28;20400;-70
2022/05/22 06:20:47;;;;;;;9.45;6.00;;;;;;;12.31;83.34;98755.13;4191798;28;20488;-70
2022/05/22 06:22:48;;;;;;;15.98;8.20;;;;;;;12.36;88.69;98753.97;4190565;28;20378;-70
2022/05/22 06:24:49;;;;;;;17.13;7.95;;;;;;;12.36;87.53;98751.22;4190248;28;20028;-71
2022/05/22 06:26:49;;;;;;;13.27;7.80;;;;;;;12.44;88.42;98740.97;4189122;28;20041;-70
2022/05/22 06:28:49;;;;;;;13.43;7.95;;;;;;;12.52;88.50;98745.41;4188341;28;20024;-70
2022/05/22 06:30:50;;;;;;;18.52;7.97;;;;;;;12.55;84.87;98737.09;4202448;28;20479;-71
2022/05/22 06:32:50;;;;;;;16.55;9.25;;;;;;;12.70;85.35;98742.75;4188700;28;20518;-70
2022/05/22 06:34:51;;;;;;;14.18;7.93;;;;;;;12.81;85.70;98743.63;4189145;28;20120;-71
2022/05/22 06:36:51;;;;;;;10.30;7.93;;;;;;;12.96;84.91;98748.09;4189444;28;20028;-71
2022/05/22 06:41:11;;;;;;;13.60;7.95;;;;;;;13.10;84.15;98744.59;4204449;28;20152;-71
2022/05/22 06:43:12;;;;;;;16.58;9.00;;;;;;;13.16;84.72;98740.28;4202408;28;20489;-71
2022/05/22 06:45:14;;;;;;;16.10;9.70;;;;;;;13.29;85.24;98729.63;4188930;28;20122;-71
2022/05/22 06:47:15;;;;;;;17.15;8.98;;;;;;;13.41;84.41;98737.66;4192598;28;20792;-70
2022/05/22 06:49:15;;;;;;;13.63;8.13;;;;;;;13.47;83.98;98730.50;4192971;28;20060;-70
2022/05/22 06:51:15;;;;;;;13.43;8.90;;;;;;;13.40;81.71;98734.03;4189085;28;20380;-71
2022/05/22 06:53:16;;;;;;;14.00;8.05;;;;;;;13.50;80.57;98732.53;4188467;28;20031;-71
2022/05/22 06:55:16;;;;;;;13.75;8.43;;;;;;;13.61;81.45;98735.34;4199591;28;20414;-71
2022/05/22 06:57:20;;;;;;;9.55;7.93;;;;;;;13.71;79.42;98737.34;4197392;28;20525;-71
2022/05/22 06:59:20;;;;;;;14.52;8.63;;;;;;;13.74;77.18;98733.78;4197024;28;20036;-71
2022/05/22 07:01:21;;;;;;;14.20;8.50;;;;;;;13.81;78.55;98735.78;4191266;28;20029;-71
2022/05/22 07:03:22;;;;;;;14.48;9.45;;;;;;;13.83;76.69;98728.66;4196039;28;20423;-71
2022/05/22 07:05:23;;;;;;;14.90;10.00;;;;;;;13.90;76.83;98736.19;4189348;28;20501;-71
2022/05/22 07:07:23;;;;;;;17.85;9.90;;;;;;;13.98;76.70;98723.88;4191672;28;20051;-71
2022/05/22 07:09:24;;;;;;;13.55;8.60;;;;;;;14.05;76.78;98732.25;4187918;28;20027;-71
2022/05/22 07:11:39;;;;;;;14.15;8.90;;;;;;;14.10;76.76;98728.31;4188728;28;20032;-71
2022/05/22 07:13:39;;;;;;;13.43;8.80;;;;;;;14.19;77.53;98731.47;4188465;28;20101;-71
2022/05/22 07:15:39;;;;;;;16.00;9.05;;;;;;;14.22;77.65;98725.91;4190063;28;20028;-71
2022/05/22 07:17:40;;;;;;;13.20;8.48;;;;;;;14.39;77.13;98734.66;4188565;28;20036;-71
2022/05/22 07:19:44;;;;;;;13.57;9.00;;;;;;;14.40;75.54;98739.03;4194146;28;20044;-71
2022/05/22 07:21:45;;;;;;;17.42;10.57;;;;;;;14.55;75.62;98733.09;4199325;28;20444;-71
2022/05/22 07:23:46;;;;;;;15.93;8.95;;;;;;;14.71;74.36;98727.13;4191029;28;20460;-71
2022/05/22 07:25:46;;;;;;;12.60;9.13;;;;;;;14.85;75.84;98729.91;4191068;28;20136;-71
2022/05/22 07:27:46;;;;;;;11.85;7.35;;;;;;;15.02;73.71;98725.50;4193629;28;20352;-71
2022/05/22 07:29:47;;;;;;;11.93;7.07;;;;;;;15.18;74.21;98719.47;4202454;28;20032;-71
2022/05/22 07:31:47;;;;;;;11.82;8.20;;;;;;;15.36;71.97;98725.00;4196991;28;20393;-71
2022/05/22 07:33:47;;;;;;;13.15;7.60;;;;;;;15.60;75.50;98712.94;4188279;28;20060;-71
2022/05/22 07:35:56;;;;;;;10.40;8.10;;;;;;;15.68;69.60;98710.94;4191532;28;20036;-71
2022/05/22 07:37:56;;;;;;;14.75;7.97;;;;;;;15.41;69.21;98710.66;4202781;28;20035;-71
2022/05/22 07:39:57;;;;;;;13.43;8.27;;;;;;;15.43;68.80;98711.03;4201652;28;20028;-71
2022/05/22 07:41:57;;;;;;;12.50;8.10;;;;;;;15.36;69.09;98705.47;4195246;28;20361;-71
2022/05/22 07:43:58;;;;;;;14.00;8.43;;;;;;;15.39;68.61;98707.44;4195939;28;20032;-71
2022/05/22 07:45:59;;;;;;;11.82;8.45;;;;;;;15.51;68.27;98701.44;4190089;28;20062;-71
2022/05/22 07:48:00;;;;;;;10.50;7.60;;;;;;;15.64;65.19;98701.81;4188101;28;20479;-71
2022/05/22 07:50:18;;;;;;;12.43;8.85;;;;;;;15.64;66.86;98705.41;4187046;28;20092;-71
2022/05/22 07:52:18;;;;;;;12.82;8.57;;;;;;;15.57;66.25;98699.81;4190950;28;20102;-71
2022/05/22 07:54:19;;;;;;;12.32;8.27;;;;;;;15.52;69.34;98696.66;4193080;28;20081;-71
2022/05/22 07:56:22;;;;;;;12.75;8.65;;;;;;;15.46;67.85;98690.69;4188869;28;20165;-71
2022/05/22 07:58:25;;;;;;;15.77;9.10;;;;;;;15.60;68.42;98699.00;4187524;28;20060;-71
2022/05/22 08:00:25;;;;;;;11.23;8.63;;;;;;;15.66;67.35;98710.56;4189723;28;20033;-71
2022/05/22 08:02:25;;;;;;;13.93;7.75;;;;;;;15.54;68.03;98703.41;4187900;28;20028;-71
2022/05/22 08:04:26;;;;;;;11.80;7.82;;;;;;;15.49;68.17;98712.19;4193413;28;20101;-71
2022/05/22 08:06:26;;;;;;;11.88;8.05;;;;;;;15.39;66.66;98710.22;4187382;28;20059;-71
2022/05/22 08:08:27;;;;;;;13.85;9.15;;;;;;;15.50;65.49;98707.41;4187390;28;20073;-71
2022/05/22 08:10:28;;;;;;;15.23;9.65;;;;;;;15.57;66.44;98708.19;4202140;28;20276;-71
2022/05/22 08:12:28;;;;;;;12.88;7.95;;;;;;;15.56;65.37;98709.38;4195040;28;20028;-71
2022/05/22 08:14:29;;;;;;;14.48;8.73;;;;;;;15.61;65.02;98708.19;4190453;28;20118;-71
2022/05/22 08:16:30;;;;;;;12.32;8.38;;;;;;;15.64;65.86;98705.41;4188963;28;20408;-71
2022/05/22 08:18:30;;;;;;;13.18;9.38;;;;;;;15.54;62.32;98708.97;4185848;28;20082;-71
2022/05/22 08:20:34;;;;;;;14.77;9.05;;;;;;;15.45;62.78;98705.84;4191810;28;20421;-71
2022/05/22 08:22:35;;;;;;;15.77;8.82;;;;;;;15.14;62.06;98705.56;4187649;28;20101;-71
2022/05/22 08:24:35;;;;;;;15.90;9.70;;;;;;;15.01;63.05;98707.19;4193178;28;20036;-71
2022/05/22 08:26:37;;;;;;;16.35;10.63;;;;;;;15.04;61.68;98698.00;4190665;28;20036;-71
2022/05/22 08:28:37;;;;;;;17.95;10.63;;;;;;;15.00;61.98;98691.66;4200591;28;20036;-71
2022/05/22 08:30:39;;;;;;;17.30;10.10;;;;;;;15.03;62.45;98695.63;4189773;28;20043;-71
2022/05/22 08:32:42;;;;;;;15.67;9.87;;;;;;;15.16;61.21;98694.81;4187029;28;20106;-71
2022/05/22 08:34:42;;;;;;;15.15;10.23;;;;;;;15.38;63.17;98683.56;4186970;28;20045;-71
2022/05/22 08:36:42;;;;;;;15.15;10.07;;;;;;;15.53;62.29;98684.28;4186891;28;20060;-71
2022/05/22 08:38:43;;;;;;;11.05;8.63;;;;;;;15.69;63.09;98671.47;4187940;28;20020;-71
2022/05/22 08:40:54;;;;;;;11.80;10.07;;;;;;;15.81;61.98;98672.22;4196540;28;20435;-71
2022/05/22 08:43:20;;;;;;;15.77;10.13;;;;;;;15.94;61.26;98670.53;4194626;28;20036;-71
2022/05/22 08:45:27;;;;;;;16.40;11.20;;;;;;;16.08;60.93;98667.63;4183284;28;20481;-71
2022/05/22 08:47:39;;;;;;;19.60;10.18;;;;;;;16.07;59.78;98662.47;4187195;28;20517;-71
2022/05/22 08:49:53;;;;;;;19.67;9.98;;;;;;;16.06;59.35;98672.06;4186289;28;20039;-71
2022/05/22 08:52:01;;;;;;;19.73;10.55;;;;;;;16.12;59.52;98668.38;4187039;28;20028;-71
2022/05/22 08:54:20;;;;;;;15.23;9.98;;;;;;;16.24;61.32;98673.50;4186126;28;20033;-71
2022/05/22 08:59:19;;;;;;;14.63;9.95;;;;;;;16.40;60.31;98663.78;4186528;28;20047;-71
2022/05/22 09:01:31;;;;;;;11.98;8.77;;;;;;;16.22;58.76;98664.75;4186660;28;20032;-70
2022/05/22 09:03:40;;;;;;;11.70;9.23;;;;;;;15.77;59.77;98657.50;4193814;28;20036;-70
2022/05/22 09:05:41;;;;;;;15.55;9.65;;;;;;;16.01;59.26;98656.53;4202417;28;20077;-71
2022/05/22 09:08:00;;;;;;;15.15;9.07;;;;;;;16.19;60.39;98656.38;4202098;28;20119;-71
2022/05/22 09:10:02;;;;;;;18.02;9.45;;;;;;;16.34;59.18;98655.06;4193523;28;20187;-71
2022/05/22 09:12:22;;;;;;;;;;;;;;;16.54;59.99;98660.84;4187147;28;20126;-71
2022/05/22 09:14:41;;;;;;;14.57;9.02;;;;;;;16.37;58.33;98653.44;4187301;28;20029;-71
2022/05/22 09:16:50;;;;;;;17.42;10.90;;;;;;;16.53;60.52;98660.06;4188341;28;20032;-71
2022/05/22 09:19:02;;;;;;;19.77;10.65;;;;;;;16.57;58.67;98655.25;4192809;28;20250;-71
2022/05/22 09:21:20;;;;;;;17.33;10.38;;;;;;;16.74;57.90;98656.31;4186243;28;20431;-71
2022/05/22 09:23:54;;;;;;;16.15;10.40;;;;;;;16.62;58.54;98658.78;4185356;28;20491;-71
2022/05/22 09:26:24;;;;;;;18.73;11.45;;;;;;;16.43;57.16;98663.75;4186485;28;20036;-71
2022/05/22 09:28:30;;;;;;;13.50;9.15;;;;;;;16.56;58.22;98655.66;4187721;28;20588;-71
2022/05/22 09:31:07;;;;;;;15.07;10.60;;;;;;;16.36;57.18;98658.22;4186597;28;20025;-71
2022/05/22 09:33:17;;;;;;;14.88;10.05;;;;;;;16.27;57.66;98653.13;4187677;28;20429;-71
2022/05/22 09:35:30;;;;;;;15.75;9.70;;;;;;;16.37;56.27;98651.44;4193319;28;20593;-71
2022/05/22 09:37:49;;;;;;;15.48;9.63;;;;;;;16.34;56.69;98649.47;4188916;28;20570;-71
2022/05/22 09:40:35;;;;;;;17.30;9.75;;;;;;;16.61;56.70;98649.63;4191553;28;20505;-71
2022/05/22 09:43:13;;;;;;;15.02;8.75;;;;;;;16.82;56.43;98649.44;4189950;28;20040;-71
2022/05/22 09:45:50;;;;;;;15.43;10.15;;;;;;;16.90;55.46;98635.38;4189800;28;20040;-71
2022/05/22 09:47:57;;;;;;;16.15;10.13;;;;;;;17.05;56.79;98637.59;4192355;28;20298;-71